createdAt,value
2019-02-10T00:00:38.216Z,98771.00
2019-02-10T00:03:16.460Z,98775.00
2019-02-10T00:05:53.194Z,98772.00
2019-02-10T00:08:30.096Z,98770.00
2019-02-10T00:11:06.737Z,98770.00
2019-02-10T00:13:43.538Z,98779.00
2019-02-10T00:16:20.188Z,98782.00
2019-02-10T00:18:56.907Z,98779.00
2019-02-10T00:21:33.619Z,98779.00
2019-02-10T00:24:10.355Z,98776.00
2019-02-10T00:26:47.026Z,98774.00
2019-02-10T00:29:23.944Z,98772.00
2019-02-10T00:32:00.622Z,98767.00
2019-02-10T00:34:37.442Z,98777.00
2019-02-10T00:37:14.083Z,98764.00
2019-02-10T00:39:51.068Z,98771.00
2019-02-10T00:42:27.729Z,98762.00
2019-02-10T00:45:05.151Z,98766.00
2019-02-10T00:47:41.794Z,98771.00
2019-02-10T00:50:19.493Z,98774.00
2019-02-10T00:52:56.195Z,98766.00
2019-02-10T00:55:32.884Z,98781.00
2019-02-10T00:58:09.630Z,98783.00
2019-02-10T01:00:46.309Z,98782.00
2019-02-10T01:03:23.267Z,98771.00
2019-02-10T01:06:00.213Z,98770.00
2019-02-10T01:08:36.904Z,98774.00
2019-02-10T01:11:13.601Z,98780.00
2019-02-10T01:13:51.393Z,98782.00
2019-02-10T01:16:28.072Z,98771.00
2019-02-10T01:19:07.270Z,98782.00
2019-02-10T01:21:45.103Z,98775.00
2019-02-10T01:24:21.847Z,98767.00
2019-02-10T01:26:58.538Z,98764.00
2019-02-10T01:29:35.261Z,98769.00
2019-02-10T01:32:11.996Z,98769.00
2019-02-10T01:34:48.695Z,98766.00
2019-02-10T01:37:25.506Z,98777.00
2019-02-10T01:40:02.172Z,98769.00
2019-02-10T01:42:38.908Z,98776.00
2019-02-10T01:45:15.605Z,98782.00
2019-02-10T01:47:52.359Z,98776.00
2019-02-10T01:50:29.025Z,98784.00
2019-02-10T01:53:05.793Z,98773.00
2019-02-10T01:55:42.839Z,98770.00
2019-02-10T01:58:19.509Z,98760.00
2019-02-10T02:00:56.258Z,98753.00
2019-02-10T02:03:33.048Z,98768.00
2019-02-10T02:06:10.161Z,98762.00
2019-02-10T02:08:47.473Z,98746.00
2019-02-10T02:11:24.250Z,98751.00
2019-02-10T02:14:00.964Z,98764.00
2019-02-10T02:16:37.647Z,98753.00
2019-02-10T02:19:14.603Z,98756.00
2019-02-10T02:21:51.345Z,98749.00
2019-02-10T02:24:28.107Z,98741.00
2019-02-10T02:27:04.788Z,98736.00
2019-02-10T02:29:41.510Z,98747.00
2019-02-10T02:32:18.278Z,98747.00
2019-02-10T02:34:55.158Z,98747.00
2019-02-10T02:37:31.835Z,98734.00
2019-02-10T02:40:11.622Z,98727.00
2019-02-10T02:42:48.302Z,98738.00
2019-02-10T02:45:25.017Z,98726.00
2019-02-10T02:48:01.675Z,98721.00
2019-02-10T02:50:38.389Z,98726.00
2019-02-10T02:53:15.137Z,98725.00
2019-02-10T02:55:51.843Z,98712.00
2019-02-10T02:58:28.583Z,98728.00
2019-02-10T03:01:05.278Z,98720.00
2019-02-10T03:03:42.136Z,98701.00
2019-02-10T03:06:18.824Z,98697.00
2019-02-10T03:08:55.724Z,98700.00
2019-02-10T03:11:32.736Z,98718.00
2019-02-10T03:14:13.085Z,98717.00
2019-02-10T03:16:49.777Z,98702.00
2019-02-10T03:19:26.514Z,98706.00
2019-02-10T03:22:03.317Z,98699.00
2019-02-10T03:24:40.052Z,98692.00
2019-02-10T03:27:16.760Z,98697.00
2019-02-10T03:29:53.558Z,98701.00
2019-02-10T03:32:30.426Z,98693.00
2019-02-10T03:35:10.689Z,98696.00
2019-02-10T03:37:47.413Z,98706.00
2019-02-10T03:40:24.188Z,98694.00
2019-02-10T03:43:00.873Z,98691.00
2019-02-10T03:45:37.533Z,98692.00
2019-02-10T03:48:14.519Z,98680.00
2019-02-10T03:50:51.532Z,98692.00
2019-02-10T03:53:28.406Z,98674.00
2019-02-10T03:56:05.131Z,98672.00
2019-02-10T03:58:41.823Z,98681.00
2019-02-10T04:01:18.500Z,98687.00
2019-02-10T04:03:55.205Z,98679.00
2019-02-10T04:06:31.900Z,98674.00
2019-02-10T04:09:08.604Z,98666.00
2019-02-10T04:11:45.360Z,98659.00
2019-02-10T04:14:22.078Z,98654.00
2019-02-10T04:16:58.879Z,98656.00
2019-02-10T04:19:35.595Z,98660.00
2019-02-10T04:22:12.319Z,98657.00
2019-02-10T04:24:49.055Z,98647.00
2019-02-10T04:27:25.949Z,98665.00
2019-02-10T04:30:02.782Z,98652.00
2019-02-10T04:32:39.610Z,98650.00
2019-02-10T04:35:16.417Z,98645.00
2019-02-10T04:37:53.245Z,98652.00
2019-02-10T04:40:30.073Z,98628.00
2019-02-10T04:43:06.836Z,98644.00
2019-02-10T04:45:43.620Z,98637.00
2019-02-10T04:48:20.385Z,98643.00
2019-02-10T04:50:57.099Z,98640.00
2019-02-10T04:53:33.948Z,98642.00
2019-02-10T04:56:16.353Z,98620.00
2019-02-10T04:58:53.139Z,98648.00
2019-02-10T05:01:29.916Z,98641.00
2019-02-10T05:04:06.636Z,98635.00
2019-02-10T05:06:43.359Z,98631.00
2019-02-10T05:09:20.074Z,98612.00
2019-02-10T05:11:56.817Z,98630.00
2019-02-10T05:14:33.484Z,98642.00
2019-02-10T05:17:10.275Z,98635.00
2019-02-10T05:19:46.967Z,98637.00
2019-02-10T05:22:23.717Z,98627.00
2019-02-10T05:25:00.424Z,98628.00
2019-02-10T05:27:37.105Z,98628.00
2019-02-10T05:30:13.816Z,98621.00
2019-02-10T05:32:50.582Z,98602.00
2019-02-10T05:35:27.274Z,98612.00
2019-02-10T05:38:04.693Z,98619.00
2019-02-10T05:40:41.536Z,98606.00
2019-02-10T05:43:18.304Z,98601.00
2019-02-10T05:45:54.978Z,98612.00
2019-02-10T05:48:31.755Z,98610.00
2019-02-10T05:51:08.535Z,98607.00
2019-02-10T05:53:46.635Z,98612.00
2019-02-10T05:56:23.333Z,98609.00
2019-02-10T05:59:00.083Z,98598.00
2019-02-10T06:02:01.584Z,98611.00
2019-02-10T06:04:44.111Z,98588.00
2019-02-10T06:07:20.851Z,98584.00
2019-02-10T06:09:57.565Z,98593.00
2019-02-10T06:12:34.275Z,98578.00
2019-02-10T06:15:11.490Z,98583.00
2019-02-10T06:17:48.201Z,98591.00
2019-02-10T06:20:24.885Z,98581.00
2019-02-10T06:23:01.607Z,98586.00
2019-02-10T06:25:38.342Z,98592.00
2019-02-10T06:28:15.012Z,98595.00
2019-02-10T06:30:51.755Z,98585.00
2019-02-10T06:33:28.423Z,98577.00
2019-02-10T06:36:05.102Z,98592.00
2019-02-10T06:38:41.798Z,98589.00
2019-02-10T06:41:18.537Z,98584.00
2019-02-10T06:43:55.314Z,98572.00
2019-02-10T06:46:32.009Z,98580.00
2019-02-10T06:49:08.928Z,98579.00
2019-02-10T06:51:45.757Z,98592.00
2019-02-10T06:54:22.492Z,98589.00
2019-02-10T06:56:59.163Z,98572.00
2019-02-10T06:59:37.462Z,98577.00
2019-02-10T07:02:33.375Z,98572.00
2019-02-10T07:05:11.643Z,98576.00
2019-02-10T07:07:48.362Z,98579.00
2019-02-10T07:10:25.222Z,98570.00
2019-02-10T07:13:02.006Z,98575.00
2019-02-10T07:16:28.329Z,98567.00
2019-02-10T07:20:00.028Z,98561.00
2019-02-10T07:22:45.207Z,98556.00
2019-02-10T07:25:45.390Z,98558.00
2019-02-10T07:28:29.307Z,98552.00
2019-02-10T07:31:06.628Z,98548.00
2019-02-10T07:34:08.831Z,98555.00
2019-02-10T07:36:54.064Z,98555.00
2019-02-10T07:39:37.951Z,98560.00
2019-02-10T07:42:34.627Z,98563.00
2019-02-10T07:45:33.646Z,98557.00
2019-02-10T07:48:24.142Z,98558.00
2019-02-10T07:51:42.631Z,98551.00
2019-02-10T07:54:32.834Z,98550.00
2019-02-10T07:57:32.132Z,98555.00
2019-02-10T08:00:34.817Z,98542.00
2019-02-10T08:03:41.501Z,98535.00
2019-02-10T08:06:43.421Z,98538.00
2019-02-10T08:09:51.567Z,98519.00
2019-02-10T08:12:39.065Z,98519.00
2019-02-10T08:15:35.231Z,98522.00
2019-02-10T08:18:40.555Z,98531.00
2019-02-10T08:21:30.789Z,98506.00
2019-02-10T08:24:36.027Z,98495.00
2019-02-10T08:27:35.061Z,98493.00
2019-02-10T08:30:37.207Z,98493.00
2019-02-10T08:33:24.302Z,98482.00
2019-02-10T08:36:14.350Z,98517.00
2019-02-10T08:39:10.322Z,98499.00
2019-02-10T08:41:57.217Z,98488.00
2019-02-10T08:45:10.476Z,98489.00
2019-02-10T08:48:04.026Z,98489.00
2019-02-10T08:51:13.668Z,98477.00
2019-02-10T08:53:50.963Z,98474.00
2019-02-10T08:56:28.513Z,98491.00
2019-02-10T08:59:05.659Z,98488.00
2019-02-10T09:01:42.408Z,98486.00
2019-02-10T09:04:19.135Z,98496.00
2019-02-10T09:06:55.878Z,98484.00
2019-02-10T09:09:32.581Z,98479.00
2019-02-10T09:12:09.399Z,98490.00
2019-02-10T09:14:46.390Z,98482.00
2019-02-10T09:17:23.115Z,98472.00
2019-02-10T09:19:59.829Z,98474.00
2019-02-10T09:22:36.627Z,98478.00
2019-02-10T09:25:13.458Z,98487.00
2019-02-10T09:27:50.871Z,98478.00
2019-02-10T09:30:27.565Z,98469.00
2019-02-10T09:33:04.432Z,98482.00
2019-02-10T09:35:41.202Z,98477.00
2019-02-10T09:38:18.096Z,98464.00
2019-02-10T09:40:54.746Z,98473.00
2019-02-10T09:43:31.531Z,98469.00
2019-02-10T09:46:08.304Z,98456.00
2019-02-10T09:48:45.147Z,98448.00
2019-02-10T09:51:21.858Z,98452.00
2019-02-10T09:53:59.545Z,98435.00
2019-02-10T09:56:36.364Z,98451.00
2019-02-10T09:59:13.091Z,98433.00
2019-02-10T10:01:49.802Z,98445.00
2019-02-10T10:04:26.511Z,98443.00
2019-02-10T10:07:03.223Z,98452.00
2019-02-10T10:09:39.995Z,98449.00
2019-02-10T10:12:17.313Z,98443.00
2019-02-10T10:14:54.059Z,98438.00
2019-02-10T10:17:30.755Z,98431.00
2019-02-10T10:20:11.627Z,98411.00
2019-02-10T10:22:48.318Z,98420.00
2019-02-10T10:25:26.037Z,98426.00
2019-02-10T10:28:02.766Z,98400.00
2019-02-10T10:30:39.500Z,98395.00
2019-02-10T10:33:16.177Z,98379.00
2019-02-10T10:35:52.876Z,98380.00
2019-02-10T10:38:29.558Z,98361.00
2019-02-10T10:41:06.295Z,98345.00
2019-02-10T10:43:43.002Z,98348.00
2019-02-10T10:46:19.779Z,98362.00
2019-02-10T10:48:56.551Z,98343.00
2019-02-10T10:51:33.634Z,98338.00
2019-02-10T10:54:10.414Z,98349.00
2019-02-10T10:56:47.530Z,98345.00
2019-02-10T10:59:24.362Z,98365.00
2019-02-10T11:02:01.359Z,98345.00
2019-02-10T11:04:38.243Z,98356.00
2019-02-10T11:07:15.104Z,98369.00
2019-02-10T11:09:51.989Z,98343.00
2019-02-10T11:12:28.869Z,98350.00
2019-02-10T11:15:09.801Z,98336.00
2019-02-10T11:17:46.704Z,98338.00
2019-02-10T11:20:23.396Z,98348.00
2019-02-10T11:23:00.187Z,98333.00
2019-02-10T11:25:36.998Z,98326.00
2019-02-10T11:28:13.764Z,98316.00
2019-02-10T11:30:50.492Z,98309.00
2019-02-10T11:33:27.292Z,98304.00
2019-02-10T11:36:03.990Z,98298.00
2019-02-10T11:38:40.730Z,98272.00
2019-02-10T11:41:17.390Z,98272.00
2019-02-10T11:43:54.269Z,98264.00
2019-02-10T11:46:30.966Z,98238.00
2019-02-10T11:49:08.702Z,98244.00
2019-02-10T11:51:45.583Z,98237.00
2019-02-10T11:54:22.916Z,98235.00
2019-02-10T11:56:59.645Z,98217.00
2019-02-10T11:59:36.388Z,98202.00
2019-02-10T12:02:13.508Z,98199.00
2019-02-10T12:04:50.183Z,98190.00
2019-02-10T12:07:26.910Z,98175.00
2019-02-10T12:10:03.851Z,98156.00
2019-02-10T12:12:40.681Z,98154.00
2019-02-10T12:15:17.929Z,98141.00
2019-02-10T12:17:54.656Z,98097.00
2019-02-10T12:20:31.406Z,98125.00
2019-02-10T12:23:08.252Z,98103.00
2019-02-10T12:25:44.971Z,98095.00
2019-02-10T12:28:22.061Z,98102.00
2019-02-10T12:30:58.737Z,98101.00
2019-02-10T12:33:35.499Z,98086.00
2019-02-10T12:36:12.199Z,98092.00
2019-02-10T12:38:49.021Z,98086.00
2019-02-10T12:41:25.736Z,98079.00
2019-02-10T12:44:02.544Z,98060.00
2019-02-10T12:46:39.294Z,98055.00
2019-02-10T12:49:15.970Z,98068.00
2019-02-10T12:51:52.687Z,98043.00
2019-02-10T12:54:29.508Z,98018.00
2019-02-10T12:57:06.204Z,98013.00
2019-02-10T12:59:42.931Z,97991.00
2019-02-10T13:02:19.852Z,97986.00
2019-02-10T13:04:56.573Z,97967.00
2019-02-10T13:07:33.248Z,97960.00
2019-02-10T13:10:17.413Z,97965.00
2019-02-10T13:12:54.172Z,97948.00
2019-02-10T13:15:30.865Z,97943.00
2019-02-10T13:18:07.569Z,97931.00
2019-02-10T13:20:44.499Z,97931.00
2019-02-10T13:23:21.260Z,97922.00
2019-02-10T13:25:57.951Z,97924.00
2019-02-10T13:28:34.995Z,97919.00
2019-02-10T13:31:11.685Z,97921.00
2019-02-10T13:33:48.511Z,97920.00
2019-02-10T13:36:25.303Z,97921.00
2019-02-10T13:39:02.129Z,97915.00
2019-02-10T13:41:38.856Z,97917.00
2019-02-10T13:44:15.643Z,97926.00
2019-02-10T13:46:52.353Z,97910.00
2019-02-10T13:49:29.129Z,97910.00
2019-02-10T13:52:05.956Z,97920.00
2019-02-10T13:54:42.664Z,97904.00
2019-02-10T13:57:20.435Z,97906.00
2019-02-10T13:59:57.192Z,97895.00
2019-02-10T14:02:33.886Z,97891.00
2019-02-10T14:05:10.720Z,97888.00
2019-02-10T14:07:48.398Z,97889.00
2019-02-10T14:10:28.136Z,97871.00
2019-02-10T14:13:06.779Z,97861.00
2019-02-10T14:15:45.258Z,97873.00
2019-02-10T14:18:21.943Z,97855.00
2019-02-10T14:20:58.813Z,97857.00
2019-02-10T14:23:35.598Z,97842.00
2019-02-10T14:26:12.363Z,97835.00
2019-02-10T14:28:49.158Z,97830.00
2019-02-10T14:31:25.921Z,97832.00
2019-02-10T14:34:03.447Z,97815.00
2019-02-10T14:36:40.304Z,97816.00
2019-02-10T14:39:17.070Z,97802.00
2019-02-10T14:41:53.937Z,97804.00
2019-02-10T14:44:30.724Z,97784.00
2019-02-10T14:47:07.491Z,97800.00
2019-02-10T14:49:44.274Z,97799.00
2019-02-10T14:52:21.167Z,97799.00
2019-02-10T14:54:57.924Z,97791.00
2019-02-10T14:57:34.704Z,97794.00
2019-02-10T15:00:16.515Z,97790.00
2019-02-10T15:02:52.865Z,97766.00
2019-02-10T15:05:29.429Z,97777.00
2019-02-10T15:08:06.199Z,97766.00
2019-02-10T15:10:43.091Z,97752.00
2019-02-10T15:13:19.963Z,97740.00
2019-02-10T15:15:56.753Z,97734.00
2019-02-10T15:18:33.618Z,97726.00
2019-02-10T15:21:10.344Z,97720.00
2019-02-10T15:23:48.299Z,97712.00
2019-02-10T15:26:25.041Z,97707.00
2019-02-10T15:29:01.955Z,97709.00
2019-02-10T15:31:38.715Z,97683.00
2019-02-10T15:34:15.489Z,97687.00
2019-02-10T15:36:52.163Z,97702.00
2019-02-10T15:39:28.948Z,97693.00
2019-02-10T15:42:09.472Z,97695.00
2019-02-10T15:44:45.682Z,97695.00
2019-02-10T15:47:22.556Z,97686.00
2019-02-10T15:49:59.334Z,97663.00
2019-02-10T15:52:35.992Z,97643.00
2019-02-10T15:55:13.835Z,97639.00
2019-02-10T15:57:50.568Z,97631.00
2019-02-10T16:00:29.114Z,97637.00
2019-02-10T16:03:05.861Z,97622.00
2019-02-10T16:05:42.647Z,97588.00
2019-02-10T16:08:27.415Z,97610.00
2019-02-10T16:11:09.185Z,97600.00
2019-02-10T16:13:48.826Z,97588.00
2019-02-10T16:16:27.052Z,97620.00
2019-02-10T16:19:03.829Z,97584.00
2019-02-10T16:21:42.029Z,97544.00
2019-02-10T16:24:22.123Z,97561.00
2019-02-10T16:26:58.873Z,97533.00
2019-02-10T16:29:47.666Z,97526.00
2019-02-10T16:32:28.891Z,97499.00
2019-02-10T16:35:07.047Z,97509.00
2019-02-10T16:37:43.887Z,97503.00
2019-02-10T16:40:23.218Z,97494.00
2019-02-10T16:43:00.193Z,97487.00
2019-02-10T16:45:36.967Z,97466.00
2019-02-10T16:48:13.743Z,97466.00
2019-02-10T16:50:50.521Z,97470.00
2019-02-10T16:53:27.410Z,97485.00
2019-02-10T16:56:04.180Z,97479.00
2019-02-10T16:58:40.948Z,97474.00
2019-02-10T17:01:17.731Z,97460.00
2019-02-10T17:03:54.431Z,97461.00
2019-02-10T17:06:31.168Z,97473.00
2019-02-10T17:09:07.959Z,97477.00
2019-02-10T17:11:45.238Z,97456.00
2019-02-10T17:14:22.124Z,97457.00
2019-02-10T17:16:58.896Z,97457.00
2019-02-10T17:19:35.660Z,97452.00
2019-02-10T17:22:12.550Z,97454.00
2019-02-10T17:24:49.321Z,97442.00
2019-02-10T17:27:26.089Z,97439.00
2019-02-10T17:30:10.961Z,97425.00
2019-02-10T17:32:47.844Z,97428.00
2019-02-10T17:35:24.716Z,97397.00
2019-02-10T17:38:01.408Z,97416.00
2019-02-10T17:40:48.516Z,97395.00
2019-02-10T17:43:28.135Z,97390.00
2019-02-10T17:46:04.205Z,97387.00
2019-02-10T17:48:40.993Z,97387.00
2019-02-10T17:51:17.762Z,97378.00
2019-02-10T17:53:56.009Z,97362.00
2019-02-10T17:56:32.958Z,97371.00
2019-02-10T17:59:10.143Z,97375.00
2019-02-10T18:01:47.009Z,97379.00
2019-02-10T18:04:23.805Z,97381.00
2019-02-10T18:07:00.573Z,97399.00
2019-02-10T18:09:37.758Z,97404.00
2019-02-10T18:12:14.725Z,97411.00
2019-02-10T18:14:53.045Z,97419.00
2019-02-10T18:17:34.235Z,97395.00
2019-02-10T18:20:13.508Z,97427.00
2019-02-10T18:23:01.405Z,97418.00
2019-02-10T18:25:40.216Z,97421.00
2019-02-10T18:28:21.300Z,97405.00
2019-02-10T18:30:59.808Z,97419.00
2019-02-10T18:33:41.505Z,97395.00
2019-02-10T18:36:36.299Z,97408.00
2019-02-10T18:39:23.826Z,97409.00
2019-02-10T18:42:11.171Z,97407.00
2019-02-10T18:44:58.274Z,97409.00
2019-02-10T18:47:42.625Z,97418.00
2019-02-10T18:50:35.884Z,97406.00
2019-02-10T18:53:20.140Z,97402.00
2019-02-10T18:56:10.535Z,97387.00
2019-02-10T18:59:04.307Z,97376.00
2019-02-10T19:01:49.595Z,97369.00
2019-02-10T19:04:27.996Z,97346.00
2019-02-10T19:07:09.265Z,97355.00
2019-02-10T19:09:59.563Z,97339.00
2019-02-10T19:12:37.975Z,97326.00
2019-02-10T19:15:32.460Z,97335.00
2019-02-10T19:18:10.804Z,97335.00
2019-02-10T19:20:49.095Z,97391.00
2019-02-10T19:23:46.561Z,97357.00
2019-02-10T19:26:24.970Z,97357.00
2019-02-10T19:29:03.280Z,97343.00
2019-02-10T19:31:44.363Z,97334.00
2019-02-10T19:34:22.761Z,97322.00
2019-02-10T19:37:10.236Z,97322.00
2019-02-10T19:39:48.542Z,97325.00
2019-02-10T19:42:34.582Z,97305.00
2019-02-10T19:45:12.869Z,97306.00
2019-02-10T19:48:01.251Z,97310.00
2019-02-10T19:50:39.863Z,97302.00
2019-02-10T19:53:21.167Z,97297.00
2019-02-10T19:56:15.550Z,97295.00
2019-02-10T19:59:02.896Z,97308.00
2019-02-10T20:01:44.017Z,97294.00
2019-02-10T20:04:28.377Z,97282.00
2019-02-10T20:07:09.643Z,97274.00
2019-02-10T20:10:03.008Z,97276.00
2019-02-10T20:12:44.646Z,97249.00
2019-02-10T20:15:22.951Z,97260.00
2019-02-10T20:18:01.317Z,97262.00
2019-02-10T20:20:39.736Z,97252.00
2019-02-10T20:23:26.815Z,97256.00
2019-02-10T20:26:08.076Z,97267.00
2019-02-10T20:28:46.355Z,97280.00
2019-02-10T20:31:24.598Z,97262.00
2019-02-10T20:34:17.802Z,97275.00
2019-02-10T20:37:00.062Z,97279.00
2019-02-10T20:39:38.335Z,97274.00
2019-02-10T20:42:31.799Z,97275.00
2019-02-10T20:45:18.981Z,97270.00
2019-02-10T20:47:57.304Z,97277.00
2019-02-10T20:50:38.548Z,97247.00
2019-02-10T20:53:33.438Z,97249.00
2019-02-10T20:56:14.839Z,97255.00
2019-02-10T20:58:56.015Z,97245.00
2019-02-10T21:01:43.446Z,97254.00
2019-02-10T21:04:21.752Z,97229.00
2019-02-10T21:07:12.198Z,97234.00
2019-02-10T21:10:05.613Z,97209.00
2019-02-10T21:12:50.167Z,97206.00
2019-02-10T21:15:40.860Z,97194.00
2019-02-10T21:18:22.160Z,97195.00
2019-02-10T21:21:00.567Z,97183.00
2019-02-10T21:23:38.971Z,97176.00
2019-02-10T21:26:17.218Z,97182.00
2019-02-10T21:29:12.034Z,97175.00
2019-02-10T21:32:06.382Z,97184.00
2019-02-10T21:34:45.107Z,97177.00
2019-02-10T21:37:35.804Z,97183.00
2019-02-10T21:40:14.109Z,97165.00
2019-02-10T21:42:52.527Z,97180.00
2019-02-10T21:45:31.133Z,97166.00
2019-02-10T21:48:09.445Z,97159.00
2019-02-10T21:50:46.221Z,97175.00
2019-02-10T21:53:23.833Z,97161.00
2019-02-10T21:56:00.590Z,97161.00
2019-02-10T21:58:37.425Z,97171.00
2019-02-10T22:01:14.252Z,97169.00
2019-02-10T22:03:51.130Z,97169.00
2019-02-10T22:06:27.897Z,97155.00
2019-02-10T22:09:05.500Z,97164.00
2019-02-10T22:11:43.818Z,97164.00
2019-02-10T22:14:20.587Z,97146.00
2019-02-10T22:16:58.395Z,97168.00
2019-02-10T22:19:35.155Z,97152.00
2019-02-10T22:22:12.044Z,97153.00
2019-02-10T22:24:49.845Z,97150.00
2019-02-10T22:27:26.621Z,97135.00
2019-02-10T22:30:03.503Z,97164.00
2019-02-10T22:32:41.608Z,97156.00
2019-02-10T22:35:18.693Z,97151.00
2019-02-10T22:37:55.669Z,97159.00
2019-02-10T22:40:32.438Z,97135.00
2019-02-10T22:43:09.322Z,97175.00
2019-02-10T22:45:46.098Z,97182.00
2019-02-10T22:48:24.102Z,97182.00
2019-02-10T22:51:00.866Z,97174.00
2019-02-10T22:53:37.755Z,97192.00
2019-02-10T22:56:14.531Z,97199.00
2019-02-10T22:58:51.313Z,97203.00
2019-02-10T23:01:28.092Z,97199.00
2019-02-10T23:04:04.965Z,97185.00
2019-02-10T23:06:41.739Z,97188.00
2019-02-10T23:09:21.686Z,97188.00
2019-02-10T23:11:58.460Z,97177.00
2019-02-10T23:14:35.340Z,97181.00
2019-02-10T23:17:12.099Z,97186.00
2019-02-10T23:19:48.889Z,97200.00
2019-02-10T23:22:26.691Z,97201.00
2019-02-10T23:25:03.467Z,97217.00
2019-02-10T23:27:40.240Z,97229.00
2019-02-10T23:30:17.011Z,97240.00
2019-02-10T23:32:53.896Z,97246.00
2019-02-10T23:35:30.773Z,97245.00
2019-02-10T23:38:07.549Z,97259.00
2019-02-10T23:40:44.318Z,97241.00
2019-02-10T23:43:21.195Z,97238.00
2019-02-10T23:45:58.065Z,97242.00
2019-02-10T23:48:34.853Z,97239.00
2019-02-10T23:51:11.519Z,97224.00
2019-02-10T23:53:48.407Z,97241.00
2019-02-10T23:56:25.167Z,97232.00
2019-02-10T23:59:02.250Z,97231.00
